sensor_id;sensor_type;location;lat;lon;timestamp;temperature;humidity
69938;DHT22;57248;47.320;15.998;2023-07-31T00:00:55;15.49;88.96
69938;DHT22;57248;47.320;15.998;2023-07-31T00:03:27;15.47;88.50
69938;DHT22;57248;47.320;15.998;2023-07-31T00:05:59;15.42;88.98
69938;DHT22;57248;47.320;15.998;2023-07-31T00:08:24;15.44;89.26
69938;DHT22;57248;47.320;15.998;2023-07-31T00:10:57;15.38;89.18
69938;DHT22;57248;47.320;15.998;2023-07-31T00:13:29;15.08;90.54
69938;DHT22;57248;47.320;15.998;2023-07-31T00:16:01;15.14;89.98
69938;DHT22;57248;47.320;15.998;2023-07-31T00:18:33;15.31;88.38
69938;DHT22;57248;47.320;15.998;2023-07-31T00:21:05;15.30;87.57
69938;DHT22;57248;47.320;15.998;2023-07-31T00:23:37;15.32;88.27
69938;DHT22;57248;47.320;15.998;2023-07-31T00:26:09;15.30;88.56
69938;DHT22;57248;47.320;15.998;2023-07-31T00:28:41;15.23;88.14
69938;DHT22;57248;47.320;15.998;2023-07-31T00:31:13;15.21;88.43
69938;DHT22;57248;47.320;15.998;2023-07-31T00:33:45;15.07;89.49
69938;DHT22;57248;47.320;15.998;2023-07-31T00:36:18;15.12;89.53
69938;DHT22;57248;47.320;15.998;2023-07-31T00:38:50;14.96;90.84
69938;DHT22;57248;47.320;15.998;2023-07-31T00:41:22;15.04;90.39
69938;DHT22;57248;47.320;15.998;2023-07-31T00:43:54;14.90;91.18
69938;DHT22;57248;47.320;15.998;2023-07-31T00:46:27;14.81;90.97
69938;DHT22;57248;47.320;15.998;2023-07-31T00:48:59;14.77;90.65
69938;DHT22;57248;47.320;15.998;2023-07-31T00:51:31;14.84;90.29
69938;DHT22;57248;47.320;15.998;2023-07-31T00:54:03;14.86;89.49
69938;DHT22;57248;47.320;15.998;2023-07-31T00:56:50;14.97;90.08
69938;DHT22;57248;47.320;15.998;2023-07-31T00:59:23;14.94;89.45
69938;DHT22;57248;47.320;15.998;2023-07-31T01:01:55;14.88;90.62
69938;DHT22;57248;47.320;15.998;2023-07-31T01:04:27;14.86;91.64
69938;DHT22;57248;47.320;15.998;2023-07-31T01:07:13;14.91;90.76
69938;DHT22;57248;47.320;15.998;2023-07-31T01:10:12;14.77;91.11
69938;DHT22;57248;47.320;15.998;2023-07-31T01:12:47;14.80;91.08
69938;DHT22;57248;47.320;15.998;2023-07-31T01:15:21;14.88;90.70
69938;DHT22;57248;47.320;15.998;2023-07-31T01:17:53;14.80;91.69
69938;DHT22;57248;47.320;15.998;2023-07-31T01:20:26;14.81;91.39
69938;DHT22;57248;47.320;15.998;2023-07-31T01:26:03;14.67;91.49
69938;DHT22;57248;47.320;15.998;2023-07-31T01:31:25;14.67;90.93
69938;DHT22;57248;47.320;15.998;2023-07-31T01:33:56;14.52;91.03
69938;DHT22;57248;47.320;15.998;2023-07-31T01:36:30;14.35;91.66
69938;DHT22;57248;47.320;15.998;2023-07-31T01:39:04;14.18;92.97
69938;DHT22;57248;47.320;15.998;2023-07-31T01:41:36;14.25;93.03
69938;DHT22;57248;47.320;15.998;2023-07-31T01:44:08;14.32;92.67
69938;DHT22;57248;47.320;15.998;2023-07-31T01:46:40;14.36;92.25
69938;DHT22;57248;47.320;15.998;2023-07-31T01:49:12;14.42;91.73
69938;DHT22;57248;47.320;15.998;2023-07-31T01:51:44;14.40;92.45
69938;DHT22;57248;47.320;15.998;2023-07-31T01:54:09;14.43;92.48
69938;DHT22;57248;47.320;15.998;2023-07-31T01:56:41;14.45;92.38
69938;DHT22;57248;47.320;15.998;2023-07-31T01:59:20;14.40;92.35
69938;DHT22;57248;47.320;15.998;2023-07-31T02:01:52;14.28;91.98
69938;DHT22;57248;47.320;15.998;2023-07-31T02:04:24;14.33;92.51
69938;DHT22;57248;47.320;15.998;2023-07-31T02:06:56;14.25;92.01
69938;DHT22;57248;47.320;15.998;2023-07-31T02:09:28;14.22;92.19
69938;DHT22;57248;47.320;15.998;2023-07-31T02:12:00;14.18;92.61
69938;DHT22;57248;47.320;15.998;2023-07-31T02:14:32;14.18;92.70
69938;DHT22;57248;47.320;15.998;2023-07-31T02:17:04;14.19;92.68
69938;DHT22;57248;47.320;15.998;2023-07-31T02:19:36;14.18;93.00
69938;DHT22;57248;47.320;15.998;2023-07-31T02:22:08;14.19;92.34
69938;DHT22;57248;47.320;15.998;2023-07-31T02:24:40;14.18;92.43
69938;DHT22;57248;47.320;15.998;2023-07-31T02:27:12;14.12;92.85
69938;DHT22;57248;47.320;15.998;2023-07-31T02:29:44;14.14;93.19
69938;DHT22;57248;47.320;15.998;2023-07-31T02:32:17;14.17;92.29
69938;DHT22;57248;47.320;15.998;2023-07-31T02:34:49;14.12;93.20
69938;DHT22;57248;47.320;15.998;2023-07-31T02:37:21;14.09;93.41
69938;DHT22;57248;47.320;15.998;2023-07-31T02:39:53;14.15;92.53
69938;DHT22;57248;47.320;15.998;2023-07-31T02:42:27;14.17;92.91
69938;DHT22;57248;47.320;15.998;2023-07-31T02:44:59;14.15;92.88
69938;DHT22;57248;47.320;15.998;2023-07-31T02:47:31;14.17;92.68
69938;DHT22;57248;47.320;15.998;2023-07-31T02:50:03;14.18;92.67
69938;DHT22;57248;47.320;15.998;2023-07-31T02:52:35;14.09;93.33
69938;DHT22;57248;47.320;15.998;2023-07-31T02:55:14;14.11;93.08
69938;DHT22;57248;47.320;15.998;2023-07-31T02:57:46;14.09;92.97
69938;DHT22;57248;47.320;15.998;2023-07-31T03:00:25;14.09;93.33
69938;DHT22;57248;47.320;15.998;2023-07-31T03:02:51;14.04;92.88
69938;DHT22;57248;47.320;15.998;2023-07-31T03:05:23;14.05;93.46
69938;DHT22;57248;47.320;15.998;2023-07-31T03:07:55;14.04;92.32
69938;DHT22;57248;47.320;15.998;2023-07-31T03:10:27;14.04;92.77
69938;DHT22;57248;47.320;15.998;2023-07-31T03:12:59;14.02;93.26
69938;DHT22;57248;47.320;15.998;2023-07-31T03:15:31;14.02;93.40
69938;DHT22;57248;47.320;15.998;2023-07-31T03:18:03;14.00;93.08
69938;DHT22;57248;47.320;15.998;2023-07-31T03:20:35;14.00;93.02
69938;DHT22;57248;47.320;15.998;2023-07-31T03:23:07;14.00;92.80
69938;DHT22;57248;47.320;15.998;2023-07-31T03:25:54;13.95;92.35
69938;DHT22;57248;47.320;15.998;2023-07-31T03:28:30;13.88;93.15
69938;DHT22;57248;47.320;15.998;2023-07-31T03:31:02;13.85;93.21
69938;DHT22;57248;47.320;15.998;2023-07-31T03:33:34;13.88;93.08
69938;DHT22;57248;47.320;15.998;2023-07-31T03:36:06;13.92;93.12
69938;DHT22;57248;47.320;15.998;2023-07-31T03:38:38;13.88;92.81
69938;DHT22;57248;47.320;15.998;2023-07-31T03:41:10;13.85;92.82
69938;DHT22;57248;47.320;15.998;2023-07-31T03:43:46;13.80;93.49
69938;DHT22;57248;47.320;15.998;2023-07-31T03:46:18;13.77;93.75
69938;DHT22;57248;47.320;15.998;2023-07-31T03:48:50;13.68;93.86
69938;DHT22;57248;47.320;15.998;2023-07-31T03:51:23;13.74;93.85
69938;DHT22;57248;47.320;15.998;2023-07-31T03:53:55;13.60;93.51
69938;DHT22;57248;47.320;15.998;2023-07-31T03:56:34;13.49;94.13
69938;DHT22;57248;47.320;15.998;2023-07-31T03:59:06;13.47;95.11
69938;DHT22;57248;47.320;15.998;2023-07-31T04:01:38;13.71;95.04
69938;DHT22;57248;47.320;15.998;2023-07-31T04:04:10;13.68;94.45
69938;DHT22;57248;47.320;15.998;2023-07-31T04:06:43;13.80;94.30
69938;DHT22;57248;47.320;15.998;2023-07-31T04:09:15;13.85;93.87
69938;DHT22;57248;47.320;15.998;2023-07-31T04:11:48;13.81;94.19
69938;DHT22;57248;47.320;15.998;2023-07-31T04:14:20;13.88;93.75
69938;DHT22;57248;47.320;15.998;2023-07-31T04:16:52;13.80;94.04
69938;DHT22;57248;47.320;15.998;2023-07-31T04:19:24;13.91;93.66
69938;DHT22;57248;47.320;15.998;2023-07-31T04:21:56;13.85;93.53
69938;DHT22;57248;47.320;15.998;2023-07-31T04:24:28;13.98;93.97
69938;DHT22;57248;47.320;15.998;2023-07-31T04:27:00;14.08;93.26
69938;DHT22;57248;47.320;15.998;2023-07-31T04:29:25;14.05;92.79
69938;DHT22;57248;47.320;15.998;2023-07-31T04:31:57;14.05;93.00
69938;DHT22;57248;47.320;15.998;2023-07-31T04:34:23;14.08;93.24
69938;DHT22;57248;47.320;15.998;2023-07-31T04:36:55;14.14;92.46
69938;DHT22;57248;47.320;15.998;2023-07-31T04:39:27;14.24;93.04
69938;DHT22;57248;47.320;15.998;2023-07-31T04:41:59;14.36;92.71
69938;DHT22;57248;47.320;15.998;2023-07-31T04:44:31;14.52;92.45
69938;DHT22;57248;47.320;15.998;2023-07-31T04:47:04;14.69;91.84
69938;DHT22;57248;47.320;15.998;2023-07-31T04:49:36;14.81;91.22
69938;DHT22;57248;47.320;15.998;2023-07-31T04:52:08;15.04;90.46
69938;DHT22;57248;47.320;15.998;2023-07-31T04:54:40;15.26;89.67
69938;DHT22;57248;47.320;15.998;2023-07-31T04:57:26;16.65;93.42
69938;DHT22;57248;47.320;15.998;2023-07-31T04:59:58;17.11;90.17
69938;DHT22;57248;47.320;15.998;2023-07-31T05:02:30;17.53;88.69
69938;DHT22;57248;47.320;15.998;2023-07-31T05:05:02;17.84;87.62
69938;DHT22;57248;47.320;15.998;2023-07-31T05:07:34;18.01;85.93
69938;DHT22;57248;47.320;15.998;2023-07-31T05:09:59;18.22;84.77
69938;DHT22;57248;47.320;15.998;2023-07-31T05:12:31;18.35;84.07
69938;DHT22;57248;47.320;15.998;2023-07-31T05:15:04;18.63;83.18
69938;DHT22;57248;47.320;15.998;2023-07-31T05:17:36;18.97;82.40
69938;DHT22;57248;47.320;15.998;2023-07-31T05:20:08;19.20;81.39
69938;DHT22;57248;47.320;15.998;2023-07-31T05:22:41;19.11;81.20
69938;DHT22;57248;47.320;15.998;2023-07-31T05:25:14;19.28;80.60
69938;DHT22;57248;47.320;15.998;2023-07-31T05:27:46;19.69;79.18
69938;DHT22;57248;47.320;15.998;2023-07-31T05:30:18;19.34;79.37
69938;DHT22;57248;47.320;15.998;2023-07-31T05:32:50;19.36;80.63
69938;DHT22;57248;47.320;15.998;2023-07-31T05:35:22;19.34;80.61
69938;DHT22;57248;47.320;15.998;2023-07-31T05:37:55;19.55;80.51
69938;DHT22;57248;47.320;15.998;2023-07-31T05:40:20;19.45;78.50
69938;DHT22;57248;47.320;15.998;2023-07-31T05:42:52;19.81;79.49
69938;DHT22;57248;47.320;15.998;2023-07-31T05:45:25;19.45;78.81
69938;DHT22;57248;47.320;15.998;2023-07-31T05:47:57;19.64;78.55
69938;DHT22;57248;47.320;15.998;2023-07-31T05:50:30;19.65;76.51
69938;DHT22;57248;47.320;15.998;2023-07-31T05:53:02;19.93;76.56
69938;DHT22;57248;47.320;15.998;2023-07-31T05:55:35;20.40;77.45
69938;DHT22;57248;47.320;15.998;2023-07-31T05:58:21;20.74;76.17
69938;DHT22;57248;47.320;15.998;2023-07-31T06:00:53;21.03;75.98
69938;DHT22;57248;47.320;15.998;2023-07-31T06:03:25;20.96;72.94
69938;DHT22;57248;47.320;15.998;2023-07-31T06:05:57;20.48;72.65
69938;DHT22;57248;47.320;15.998;2023-07-31T06:08:29;20.74;74.58
69938;DHT22;57248;47.320;15.998;2023-07-31T06:11:01;21.05;72.40
69938;DHT22;57248;47.320;15.998;2023-07-31T06:13:26;21.01;71.02
69938;DHT22;57248;47.320;15.998;2023-07-31T06:15:59;21.26;71.47
69938;DHT22;57248;47.320;15.998;2023-07-31T06:18:32;21.23;68.64
69938;DHT22;57248;47.320;15.998;2023-07-31T06:20:58;20.98;68.45
69938;DHT22;57248;47.320;15.998;2023-07-31T06:23:31;21.18;69.48
69938;DHT22;57248;47.320;15.998;2023-07-31T06:26:03;20.68;68.93
69938;DHT22;57248;47.320;15.998;2023-07-31T06:28:31;21.15;70.45
69938;DHT22;57248;47.320;15.998;2023-07-31T06:31:03;21.28;69.61
69938;DHT22;57248;47.320;15.998;2023-07-31T06:33:35;20.99;69.31
69938;DHT22;57248;47.320;15.998;2023-07-31T06:36:07;21.40;68.20
69938;DHT22;57248;47.320;15.998;2023-07-31T06:38:39;21.74;67.69
69938;DHT22;57248;47.320;15.998;2023-07-31T06:41:04;22.49;66.97
69938;DHT22;57248;47.320;15.998;2023-07-31T06:43:36;21.93;67.28
69938;DHT22;57248;47.320;15.998;2023-07-31T06:46:06;22.14;68.53
69938;DHT22;57248;47.320;15.998;2023-07-31T06:48:41;21.90;67.53
69938;DHT22;57248;47.320;15.998;2023-07-31T06:51:13;21.74;67.58
69938;DHT22;57248;47.320;15.998;2023-07-31T06:53:45;22.10;68.56
69938;DHT22;57248;47.320;15.998;2023-07-31T06:56:17;22.68;67.19
69938;DHT22;57248;47.320;15.998;2023-07-31T06:58:56;22.96;66.44
69938;DHT22;57248;47.320;15.998;2023-07-31T07:01:28;23.21;65.02
69938;DHT22;57248;47.320;15.998;2023-07-31T07:04:00;23.50;63.36
69938;DHT22;57248;47.320;15.998;2023-07-31T07:06:32;23.13;63.98
69938;DHT22;57248;47.320;15.998;2023-07-31T07:08:57;23.65;63.60
69938;DHT22;57248;47.320;15.998;2023-07-31T07:11:30;23.41;63.51
69938;DHT22;57248;47.320;15.998;2023-07-31T07:14:02;23.23;64.59
69938;DHT22;57248;47.320;15.998;2023-07-31T07:16:35;23.03;63.62
69938;DHT22;57248;47.320;15.998;2023-07-31T07:19:07;23.43;63.22
69938;DHT22;57248;47.320;15.998;2023-07-31T07:21:32;23.98;62.53
69938;DHT22;57248;47.320;15.998;2023-07-31T07:24:05;24.26;61.22
69938;DHT22;57248;47.320;15.998;2023-07-31T07:26:37;24.59;60.76
69938;DHT22;57248;47.320;15.998;2023-07-31T07:29:10;24.55;60.71
69938;DHT22;57248;47.320;15.998;2023-07-31T07:31:42;24.71;59.35
69938;DHT22;57248;47.320;15.998;2023-07-31T07:34:14;24.91;59.64
69938;DHT22;57248;47.320;15.998;2023-07-31T07:36:40;24.90;59.67
69938;DHT22;57248;47.320;15.998;2023-07-31T07:39:12;24.94;60.54
69938;DHT22;57248;47.320;15.998;2023-07-31T07:41:44;25.80;57.71
69938;DHT22;57248;47.320;15.998;2023-07-31T07:44:16;25.34;59.68
69938;DHT22;57248;47.320;15.998;2023-07-31T07:46:48;25.61;59.16
69938;DHT22;57248;47.320;15.998;2023-07-31T07:49:21;26.48;57.03
69938;DHT22;57248;47.320;15.998;2023-07-31T07:51:54;25.59;58.09
69938;DHT22;57248;47.320;15.998;2023-07-31T07:54:19;26.35;57.16
69938;DHT22;57248;47.320;15.998;2023-07-31T07:57:00;26.76;53.11
69938;DHT22;57248;47.320;15.998;2023-07-31T07:59:32;26.25;53.52
69938;DHT22;57248;47.320;15.998;2023-07-31T08:02:04;29.61;48.31
69938;DHT22;57248;47.320;15.998;2023-07-31T08:04:36;29.01;47.77
69938;DHT22;57248;47.320;15.998;2023-07-31T08:07:12;29.72;46.61
69938;DHT22;57248;47.320;15.998;2023-07-31T08:09:46;29.63;47.10
69938;DHT22;57248;47.320;15.998;2023-07-31T08:12:11;31.28;44.59
69938;DHT22;57248;47.320;15.998;2023-07-31T08:14:43;30.20;46.91
69938;DHT22;57248;47.320;15.998;2023-07-31T08:17:16;31.19;44.77
69938;DHT22;57248;47.320;15.998;2023-07-31T08:19:48;28.60;45.86
69938;DHT22;57248;47.320;15.998;2023-07-31T08:22:22;31.59;41.95
69938;DHT22;57248;47.320;15.998;2023-07-31T08:24:54;30.75;42.37
69938;DHT22;57248;47.320;15.998;2023-07-31T08:27:26;33.39;38.89
69938;DHT22;57248;47.320;15.998;2023-07-31T08:29:58;34.28;39.84
69938;DHT22;57248;47.320;15.998;2023-07-31T08:32:30;32.54;40.46
69938;DHT22;57248;47.320;15.998;2023-07-31T08:35:03;33.43;38.84
69938;DHT22;57248;47.320;15.998;2023-07-31T08:37:37;33.06;39.81
69938;DHT22;57248;47.320;15.998;2023-07-31T08:40:04;34.82;39.27
69938;DHT22;57248;47.320;15.998;2023-07-31T08:42:46;32.71;40.62
69938;DHT22;57248;47.320;15.998;2023-07-31T08:45:20;33.44;38.81
69938;DHT22;57248;47.320;15.998;2023-07-31T08:47:53;31.87;39.77
69938;DHT22;57248;47.320;15.998;2023-07-31T08:50:26;32.56;41.38
69938;DHT22;57248;47.320;15.998;2023-07-31T08:52:59;31.56;42.30
69938;DHT22;57248;47.320;15.998;2023-07-31T08:55:32;30.27;44.01
69938;DHT22;57248;47.320;15.998;2023-07-31T08:58:18;31.25;43.47
69938;DHT22;57248;47.320;15.998;2023-07-31T09:00:52;30.75;43.07
69938;DHT22;57248;47.320;15.998;2023-07-31T09:03:25;31.51;43.23
69938;DHT22;57248;47.320;15.998;2023-07-31T09:05:51;30.53;44.67
69938;DHT22;57248;47.320;15.998;2023-07-31T09:08:24;32.58;42.14
69938;DHT22;57248;47.320;15.998;2023-07-31T09:11:02;30.91;44.35
69938;DHT22;57248;47.320;15.998;2023-07-31T09:13:38;29.41;46.70
69938;DHT22;57248;47.320;15.998;2023-07-31T09:16:11;29.93;46.86
69938;DHT22;57248;47.320;15.998;2023-07-31T09:18:54;29.76;46.42
69938;DHT22;57248;47.320;15.998;2023-07-31T09:21:28;31.90;44.14
69938;DHT22;57248;47.320;15.998;2023-07-31T09:24:01;31.72;45.33
69938;DHT22;57248;47.320;15.998;2023-07-31T09:26:36;33.68;40.58
69938;DHT22;57248;47.320;15.998;2023-07-31T09:29:19;31.26;45.09
69938;DHT22;57248;47.320;15.998;2023-07-31T09:31:51;30.79;45.67
69938;DHT22;57248;47.320;15.998;2023-07-31T09:34:36;31.80;44.65
69938;DHT22;57248;47.320;15.998;2023-07-31T09:37:11;33.02;42.46
69938;DHT22;57248;47.320;15.998;2023-07-31T09:39:48;33.00;41.14
69938;DHT22;57248;47.320;15.998;2023-07-31T09:42:26;34.46;40.89
69938;DHT22;57248;47.320;15.998;2023-07-31T09:45:08;32.52;43.26
69938;DHT22;57248;47.320;15.998;2023-07-31T09:47:47;32.58;42.77
69938;DHT22;57248;47.320;15.998;2023-07-31T09:50:22;32.99;42.07
69938;DHT22;57248;47.320;15.998;2023-07-31T09:52:47;31.40;44.31
69938;DHT22;57248;47.320;15.998;2023-07-31T09:55:19;33.37;41.35
69938;DHT22;57248;47.320;15.998;2023-07-31T09:57:54;32.36;42.15
69938;DHT22;57248;47.320;15.998;2023-07-31T10:00:29;30.14;45.91
69938;DHT22;57248;47.320;15.998;2023-07-31T10:03:04;33.07;41.94
69938;DHT22;57248;47.320;15.998;2023-07-31T10:05:45;29.88;45.87
69938;DHT22;57248;47.320;15.998;2023-07-31T10:08:21;32.61;42.52
69938;DHT22;57248;47.320;15.998;2023-07-31T10:10:58;32.03;42.50
69938;DHT22;57248;47.320;15.998;2023-07-31T10:13:31;31.86;43.79
69938;DHT22;57248;47.320;15.998;2023-07-31T10:16:04;32.96;42.19
69938;DHT22;57248;47.320;15.998;2023-07-31T10:18:38;35.76;39.03
69938;DHT22;57248;47.320;15.998;2023-07-31T10:21:12;34.86;38.27
69938;DHT22;57248;47.320;15.998;2023-07-31T10:23:44;33.81;40.85
69938;DHT22;57248;47.320;15.998;2023-07-31T10:26:19;34.71;38.71
69938;DHT22;57248;47.320;15.998;2023-07-31T10:28:52;33.16;39.64
69938;DHT22;57248;47.320;15.998;2023-07-31T10:31:24;33.55;39.85
69938;DHT22;57248;47.320;15.998;2023-07-31T10:33:58;37.93;35.58
69938;DHT22;57248;47.320;15.998;2023-07-31T10:36:33;36.00;36.97
69938;DHT22;57248;47.320;15.998;2023-07-31T10:39:34;35.79;36.47
69938;DHT22;57248;47.320;15.998;2023-07-31T10:42:13;34.16;37.98
69938;DHT22;57248;47.320;15.998;2023-07-31T10:44:46;36.47;35.85
69938;DHT22;57248;47.320;15.998;2023-07-31T10:47:14;37.19;37.37
69938;DHT22;57248;47.320;15.998;2023-07-31T10:49:48;36.26;38.01
69938;DHT22;57248;47.320;15.998;2023-07-31T10:52:23;32.82;42.71
69938;DHT22;57248;47.320;15.998;2023-07-31T10:55:15;34.73;40.25
69938;DHT22;57248;47.320;15.998;2023-07-31T10:57:47;33.20;41.72
69938;DHT22;57248;47.320;15.998;2023-07-31T11:00:29;36.75;38.48
69938;DHT22;57248;47.320;15.998;2023-07-31T11:03:04;36.13;37.84
69938;DHT22;57248;47.320;15.998;2023-07-31T11:08:25;35.41;36.30
69938;DHT22;57248;47.320;15.998;2023-07-31T11:16:23;33.23;41.43
69938;DHT22;57248;47.320;15.998;2023-07-31T11:18:56;33.51;39.44
69938;DHT22;57248;47.320;15.998;2023-07-31T11:21:28;39.36;33.78
69938;DHT22;57248;47.320;15.998;2023-07-31T11:23:56;38.35;33.89
69938;DHT22;57248;47.320;15.998;2023-07-31T11:26:28;36.64;36.19
69938;DHT22;57248;47.320;15.998;2023-07-31T11:29:10;38.81;33.97
69938;DHT22;57248;47.320;15.998;2023-07-31T11:31:43;37.13;35.13
69938;DHT22;57248;47.320;15.998;2023-07-31T11:34:15;39.78;31.21
69938;DHT22;57248;47.320;15.998;2023-07-31T11:36:55;38.50;33.69
69938;DHT22;57248;47.320;15.998;2023-07-31T11:39:28;36.99;34.29
69938;DHT22;57248;47.320;15.998;2023-07-31T11:42:00;36.80;34.82
69938;DHT22;57248;47.320;15.998;2023-07-31T11:44:44;36.46;35.06
69938;DHT22;57248;47.320;15.998;2023-07-31T11:47:19;36.32;34.58
69938;DHT22;57248;47.320;15.998;2023-07-31T11:49:51;36.80;35.57
69938;DHT22;57248;47.320;15.998;2023-07-31T11:52:23;35.38;36.29
69938;DHT22;57248;47.320;15.998;2023-07-31T11:54:56;37.26;35.17
69938;DHT22;57248;47.320;15.998;2023-07-31T11:57:30;37.59;33.96
69938;DHT22;57248;47.320;15.998;2023-07-31T12:00:04;39.63;33.21
69938;DHT22;57248;47.320;15.998;2023-07-31T12:02:38;36.66;35.20
69938;DHT22;57248;47.320;15.998;2023-07-31T12:05:13;37.08;34.48
69938;DHT22;57248;47.320;15.998;2023-07-31T12:07:53;39.45;32.97
69938;DHT22;57248;47.320;15.998;2023-07-31T12:13:03;39.46;33.08
69938;DHT22;57248;47.320;15.998;2023-07-31T12:15:40;37.49;34.05
69938;DHT22;57248;47.320;15.998;2023-07-31T12:18:15;37.59;33.97
69938;DHT22;57248;47.320;15.998;2023-07-31T12:21:13;41.41;32.50
69938;DHT22;57248;47.320;15.998;2023-07-31T12:23:46;40.46;31.29
69938;DHT22;57248;47.320;15.998;2023-07-31T12:26:19;36.81;35.64
69938;DHT22;57248;47.320;15.998;2023-07-31T12:28:54;39.03;32.46
69938;DHT22;57248;47.320;15.998;2023-07-31T12:31:28;41.84;30.20
69938;DHT22;57248;47.320;15.998;2023-07-31T12:34:00;41.24;30.76
69938;DHT22;57248;47.320;15.998;2023-07-31T12:36:34;42.31;30.92
69938;DHT22;57248;47.320;15.998;2023-07-31T12:39:07;43.34;29.26
69938;DHT22;57248;47.320;15.998;2023-07-31T12:41:39;39.15;32.75
69938;DHT22;57248;47.320;15.998;2023-07-31T12:44:11;37.65;34.51
69938;DHT22;57248;47.320;15.998;2023-07-31T12:46:43;36.53;34.39
69938;DHT22;57248;47.320;15.998;2023-07-31T12:49:09;38.03;33.83
69938;DHT22;57248;47.320;15.998;2023-07-31T12:51:41;39.46;32.97
69938;DHT22;57248;47.320;15.998;2023-07-31T12:54:13;39.29;32.81
69938;DHT22;57248;47.320;15.998;2023-07-31T12:56:54;39.50;32.31
69938;DHT22;57248;47.320;15.998;2023-07-31T12:59:26;33.85;37.38
69938;DHT22;57248;47.320;15.998;2023-07-31T13:01:59;38.44;33.15
69938;DHT22;57248;47.320;15.998;2023-07-31T13:04:31;39.71;31.78
69938;DHT22;57248;47.320;15.998;2023-07-31T13:07:03;39.83;32.12
69938;DHT22;57248;47.320;15.998;2023-07-31T13:09:35;37.04;35.32
69938;DHT22;57248;47.320;15.998;2023-07-31T13:12:07;36.29;35.32
69938;DHT22;57248;47.320;15.998;2023-07-31T13:14:39;32.54;40.32
69938;DHT22;57248;47.320;15.998;2023-07-31T13:17:11;31.62;43.27
69938;DHT22;57248;47.320;15.998;2023-07-31T13:19:36;32.20;43.12
69938;DHT22;57248;47.320;15.998;2023-07-31T13:22:08;31.90;43.75
69938;DHT22;57248;47.320;15.998;2023-07-31T13:24:40;34.71;39.54
69938;DHT22;57248;47.320;15.998;2023-07-31T13:27:12;34.15;39.15
69938;DHT22;57248;47.320;15.998;2023-07-31T13:29:37;37.83;35.97
69938;DHT22;57248;47.320;15.998;2023-07-31T13:32:09;36.02;38.30
69938;DHT22;57248;47.320;15.998;2023-07-31T13:34:41;35.18;38.17
69938;DHT22;57248;47.320;15.998;2023-07-31T13:37:15;33.65;40.56
69938;DHT22;57248;47.320;15.998;2023-07-31T13:39:46;33.20;41.87
69938;DHT22;57248;47.320;15.998;2023-07-31T13:42:19;30.92;45.28
69938;DHT22;57248;47.320;15.998;2023-07-31T13:44:52;31.81;44.54
69938;DHT22;57248;47.320;15.998;2023-07-31T13:47:24;33.13;42.17
69938;DHT22;57248;47.320;15.998;2023-07-31T13:50:04;36.75;37.32
69938;DHT22;57248;47.320;15.998;2023-07-31T13:52:50;32.03;44.38
69938;DHT22;57248;47.320;15.998;2023-07-31T13:55:22;33.64;41.27
69938;DHT22;57248;47.320;15.998;2023-07-31T13:57:54;36.91;36.95
69938;DHT22;57248;47.320;15.998;2023-07-31T14:00:34;38.85;35.86
69938;DHT22;57248;47.320;15.998;2023-07-31T14:03:07;37.73;37.28
69938;DHT22;57248;47.320;15.998;2023-07-31T14:05:39;37.86;37.50
69938;DHT22;57248;47.320;15.998;2023-07-31T14:08:11;36.91;38.22
69938;DHT22;57248;47.320;15.998;2023-07-31T14:10:36;34.09;41.97
69938;DHT22;57248;47.320;15.998;2023-07-31T14:13:08;33.10;43.12
69938;DHT22;57248;47.320;15.998;2023-07-31T14:15:45;34.80;41.18
69938;DHT22;57248;47.320;15.998;2023-07-31T14:18:17;37.73;37.20
69938;DHT22;57248;47.320;15.998;2023-07-31T14:20:49;38.70;35.32
69938;DHT22;57248;47.320;15.998;2023-07-31T14:23:21;34.46;41.23
69938;DHT22;57248;47.320;15.998;2023-07-31T14:25:53;34.55;41.17
69938;DHT22;57248;47.320;15.998;2023-07-31T14:28:26;36.58;38.55
69938;DHT22;57248;47.320;15.998;2023-07-31T14:30:58;35.95;39.19
69938;DHT22;57248;47.320;15.998;2023-07-31T14:33:30;35.52;40.11
69938;DHT22;57248;47.320;15.998;2023-07-31T14:36:02;33.51;42.71
69938;DHT22;57248;47.320;15.998;2023-07-31T14:38:35;31.84;46.24
69938;DHT22;57248;47.320;15.998;2023-07-31T14:41:07;34.09;42.24
69938;DHT22;57248;47.320;15.998;2023-07-31T14:43:39;36.94;37.80
69938;DHT22;57248;47.320;15.998;2023-07-31T14:46:11;32.56;46.20
69938;DHT22;57248;47.320;15.998;2023-07-31T14:48:43;33.16;45.57
69938;DHT22;57248;47.320;15.998;2023-07-31T14:51:15;33.37;44.09
69938;DHT22;57248;47.320;15.998;2023-07-31T14:53:50;35.54;40.50
69938;DHT22;57248;47.320;15.998;2023-07-31T14:56:29;34.12;42.47
69938;DHT22;57248;47.320;15.998;2023-07-31T14:59:08;33.17;45.21
69938;DHT22;57248;47.320;15.998;2023-07-31T15:01:42;29.99;50.26
69938;DHT22;57248;47.320;15.998;2023-07-31T15:04:14;28.83;51.11
69938;DHT22;57248;47.320;15.998;2023-07-31T15:06:47;29.20;51.95
69938;DHT22;57248;47.320;15.998;2023-07-31T15:09:20;31.80;46.12
69938;DHT22;57248;47.320;15.998;2023-07-31T15:11:52;32.86;45.23
69938;DHT22;57248;47.320;15.998;2023-07-31T15:14:25;31.86;47.39
69938;DHT22;57248;47.320;15.998;2023-07-31T15:16:52;30.60;49.99
69938;DHT22;57248;47.320;15.998;2023-07-31T15:19:25;30.05;50.40
69938;DHT22;57248;47.320;15.998;2023-07-31T15:21:57;30.43;49.06
69938;DHT22;57248;47.320;15.998;2023-07-31T15:24:31;28.80;52.78
69938;DHT22;57248;47.320;15.998;2023-07-31T15:27:03;31.93;46.87
69938;DHT22;57248;47.320;15.998;2023-07-31T15:29:35;33.77;44.73
69938;DHT22;57248;47.320;15.998;2023-07-31T15:32:08;33.92;43.42
69938;DHT22;57248;47.320;15.998;2023-07-31T15:34:37;35.93;40.88
69938;DHT22;57248;47.320;15.998;2023-07-31T15:37:10;34.25;43.31
69938;DHT22;57248;47.320;15.998;2023-07-31T15:39:43;30.60;49.22
69938;DHT22;57248;47.320;15.998;2023-07-31T15:42:15;30.41;49.20
69938;DHT22;57248;47.320;15.998;2023-07-31T15:44:47;33.50;44.58
69938;DHT22;57248;47.320;15.998;2023-07-31T15:47:19;32.59;46.23
69938;DHT22;57248;47.320;15.998;2023-07-31T15:49:51;31.18;48.54
69938;DHT22;57248;47.320;15.998;2023-07-31T15:52:23;31.25;48.79
69938;DHT22;57248;47.320;15.998;2023-07-31T15:54:49;31.80;48.32
69938;DHT22;57248;47.320;15.998;2023-07-31T15:57:28;29.20;51.99
69938;DHT22;57248;47.320;15.998;2023-07-31T16:00:02;29.39;51.78
69938;DHT22;57248;47.320;15.998;2023-07-31T16:02:36;29.76;50.77
69938;DHT22;57248;47.320;15.998;2023-07-31T16:05:01;29.38;51.83
69938;DHT22;57248;47.320;15.998;2023-07-31T16:07:33;28.59;53.05